Flight Track Log - Related Links

Times and Time Zones

All times are in EDT time to prevent confusion due to time zone crossing. See the AAR8730 flight status page for this flight to view local times or setup timezone preferences in your user account.

Time Position Orientation Groundspeed Altitude Reporting Facility
EDT Latitude Longitude Course Direction KTS MPH feet Rate Location/Type
Sun 12:06:00 AM 35.2408 127.4973 346° North  Level Estimated
Sun 12:07:00 AM 35.3210 127.4736 346° North  Level Estimated
Sun 12:08:00 AM 35.4012 127.4498 346° North  Level Estimated
Sun 12:09:00 AM 35.4813 127.4259 346° North  Level Estimated
Sun 12:10:00 AM 35.5615 127.4020 346° North  Level Estimated
Sun 12:11:00 AM 35.6417 127.3781 346° North  Level Estimated
Sun 12:12:00 AM 35.7218 127.3541 346° North  Level Estimated
Sun 12:13:00 AM 35.8020 127.3301 346° North  Level Estimated
Sun 12:14:00 AM 35.8821 127.3060 346° North  Level Estimated
Sun 12:15:00 AM 35.9623 127.2819 346° North  Level Estimated
Sun 12:16:00 AM 36.0424 127.2577 346° North  Level Estimated
Sun 12:17:00 AM 36.1226 127.2335 346° North  Level Estimated
Sun 12:18:00 AM 36.2027 127.2092 346° North  Level Estimated
Sun 12:19:00 AM 36.2828 127.1849 346° North  Level Estimated
Sun 12:20:00 AM 36.3630 127.1605 346° North  Level Estimated
Sun 12:21:00 AM 36.4431 127.1361 346° North  Level Estimated
Sun 12:22:00 AM 36.5232 127.1116 346° North  Level Estimated
Sun 12:23:00 AM 36.6033 127.0871 346° North  Level Estimated
Sun 12:24:00 AM 36.6834 127.0625 346° North  Level Estimated
Sun 12:25:00 AM 36.7635 127.0379 346° North  Level Estimated
Sun 12:26:00 AM 36.8436 127.0132 346° North  Level Estimated
Sun 12:27:00 AM 36.9237 126.9885 346° North  Level Estimated
Sun 12:28:00 AM 37.0038 126.9637 346° North  Level Estimated
Sun 12:29:00 AM 37.0838 126.9389 346° North  Level Estimated
Sun 12:30:00 AM 37.1639 126.9140 346° North  Level Estimated
Sun 12:30:47 AM 37.3410 127.0590 346° North 190 219 5,900  Level FlightAware ADS-B
Sun 12:31:00 AM 37.2440 126.8890 346° North  Level Estimated
Sun 12:31:06 AM 37.3530 127.0450 317° Northwest 194 223 5,400  Level FlightAware ADS-B
Sun 12:31:23 AM 37.3640 127.0300 313° West 187 215 5,000 -1,371 Descending FlightAware ADS-B
Sun 12:31:41 AM 37.3760 127.0160 317° Northwest 187 215 4,600 -1,167 Descending FlightAware ADS-B
Sun 12:31:59 AM 37.3850 127.0050 316° Northwest 186 214 4,300 -1,000 Descending FlightAware ADS-B
Sun 12:32:23 AM 37.4000 126.9860 315° West 183 211 3,900 -1,043 Descending FlightAware ADS-B
Sun 12:32:45 AM 37.4160 126.9660 315° West 187 215 3,500 -508 Descending FlightAware ADS-B
Sun 12:33:22 AM 37.4320 126.9460 315° West 187 215 3,400 -162 Descending FlightAware ADS-B
Sun 12:35:00 AM 37.5284 126.8274 316° Northwest  Level Estimated
Sun 12:36:00 AM 37.5583 126.7906 316° Northwest  Level Estimated
Sun 12:37:00 AM 37.5583 126.7906 288° West  Level Estimated
Sun 12:38:00 AM 37.5583 126.7906 288° West  Level Estimated
Sun 12:39:00 AM 37.5583 126.7906 288° West  Level Estimated
Sun 12:40:00 AM 37.5583 126.7906 288° West  Level Estimated
Sun 12:41:00 AM 37.5583 126.7906 288° West  Level Estimated
Sun 12:42:00 AM 37.5583 126.7906 288° West  Level Estimated
Sun 12:43:00 AM 37.5583 126.7906 288° West  Level Estimated
Sun 12:44:00 AM 37.5583 126.7906 288° West  Level Estimated
Sun 12:45:00 AM 37.5583 126.7906 288° West  Level Estimated
Sun 12:46:00 AM 37.5583 126.7906 288° West  Level Estimated
Sun 12:47:00 AM 37.5583 126.7906 288° West  Level Estimated

Login

Don't have an account? Register now (free) for customized features, flight alerts, and more!